Sao Vicente, Brazil
Current Conditions -  °F | °C
As of 1:00 PM on Sunday 23 Nov 2014 (Local Time) from SBKG Reporting Station
Broken Clouds Broken Clouds  
Wind Chill: 86°   Ceiling: 4000
Heat Index: 86°   Visibility: 6mi
Dew Point: 59°   Wind: 14mph
Humidity: 40%   Direction: 80°E
Pressure: 29.94"   Gusts: NA
Location:  6.22°S, 36.68°W
Report Text: SBKG 231600Z 08012KT 9999 BKN040 30/15 Q1014
Loading
Personal Weather Stations






























Interactive Weather Map New forecast layout! Learn more

10-Day Weather Forecast

Advertisements
Track Severe Weather on mobile